Terminal Aerodrome Forecast
Issued by NWS

Home | Current Version | Previous Version | Text Only | Print | Product List | Glossary On
Versions: 1 2 3 4 5 6 7 8 9 10 11 12 13 14 15 16 17
000
FTUS43 KMQT 141740
TAFCMX
TAF
KCMX 141740Z 1418/1518 30009KT P6SM -SHSN BKN015
     FM142000 29009KT 4SM -SHSN BKN020
     FM150000 29009KT 1SM -SHSN BKN015
     FM151400 32012KT 1 1/2SM -SHSN BKN025=

USA.gov is the U.S. government's official web portal to all federal, state and local government web resources and services.